Pagina principală
METAR-TAF:

METAR-TAF

Aeroporturi :

Quillayute Airport

Forks, Washington, Statele Unite ale Americii

Latitudine: 47-56-15N, longitudine: 124-33-18W, elevație: 59 m

Observații meteo curente

Raportul a fost făcut în urmă cu 53 de minute, la 04:53 UTC
Vânt calm
Temperatură 10°C
Umiditate 87%
Presiune 1021 hPa
Vizibilitate: 16.1 km
Nori puțini la o înălțime de 5000 picior

METAR: KUIL 160453Z AUTO 00000KT 10SM FEW050 10/08 A3015 RMK AO2 RAB24E34 SLP210 P0000 T01000078

Ora: 22:46 (05:46 UTC)


TAF: lipsă

Observații și prognoze meteo pentru peste 4.000 de aeroporturi (rapoarte METAR și TAF).

Stațiile disponibile sunt reprezentate pe hartă prin puncte galbene și roșii.

Țineți indicatorul mouse-ului pe punctul dorit pentru a vedea denumirea stației.

Apoi, faceți clic pentru a vedea observațiile și prognozele meteorologice.

Pentru a schimba harta: Pentru mărire, faceți clic pe butoanele verzi cu cruce neagră; pentru micșorare, pe butonul verde cu o liniuță; pentru hărți învecinate, pe săgețile verzi.


METAR-TAF: